Roydon, United Kingdom
Current Conditions -  °F | °C
As of 5:20 AM on Tuesday 21 Oct 2014 (Local Time) from EGSS Reporting Station
Broken Clouds Broken Clouds  
Wind Chill: 55°   Ceiling: 1800
Heat Index: 55°   Visibility: 6mi
Dew Point: 50°   Wind: 23mph
Humidity: 82%   Direction: 220°SW
Pressure: 29.62"   Gusts: NA
Location:  51.77°N, 0.04°E
Report Text: EGSS 210420Z 22020KT 9999 BKN018TCU 13/10 Q1003
Loading
Personal Weather Stations






























Interactive Weather Map
Tropical Storm Tracking
New forecast layout! Learn more

10-Day Weather Forecast

Advertisements
Track Severe Weather on mobile